Map

Track Data

SID SEASON NUMBER BASIN SUBBASIN NAME ISO_TIME NATURE LAT LON WMO_WIND WMO_PRES WMO_AGENCY TRACK_TYPE DIST2LAND LANDFALL IFLAG USA_AGENCY USA_ATCF_ID USA_LAT USA_LON USA_RECORD USA_STATUS USA_WIND USA_PRES USA_SSHS USA_R34_NE USA_R34_SE USA_R34_SW USA_R34_NW USA_R50_NE USA_R50_SE USA_R50_SW USA_R50_NW USA_R64_NE USA_R64_SE USA_R64_SW USA_R64_NW USA_POCI USA_ROCI USA_RMW USA_EYE TOKYO_LAT TOKYO_LON TOKYO_GRADE TOKYO_WIND TOKYO_PRES TOKYO_R50_DIR TOKYO_R50_LONG TOKYO_R50_SHORT TOKYO_R30_DIR TOKYO_R30_LONG TOKYO_R30_SHORT TOKYO_LAND CMA_LAT CMA_LON CMA_CAT CMA_WIND CMA_PRES HKO_LAT HKO_LON HKO_CAT HKO_WIND HKO_PRES NEWDELHI_LAT NEWDELHI_LON NEWDELHI_GRADE NEWDELHI_WIND NEWDELHI_PRES NEWDELHI_CI NEWDELHI_DP NEWDELHI_POCI REUNION_LAT REUNION_LON REUNION_TYPE REUNION_WIND REUNION_PRES REUNION_TNUM REUNION_CI REUNION_RMW REUNION_R34_NE REUNION_R34_SE REUNION_R34_SW REUNION_R34_NW REUNION_R50_NE REUNION_R50_SE REUNION_R50_SW REUNION_R50_NW REUNION_R64_NE REUNION_R64_SE REUNION_R64_SW REUNION_R64_NW BOM_LAT BOM_LON BOM_TYPE BOM_WIND BOM_PRES BOM_TNUM BOM_CI BOM_RMW BOM_R34_NE BOM_R34_SE BOM_R34_SW BOM_R34_NW BOM_R50_NE BOM_R50_SE BOM_R50_SW BOM_R50_NW BOM_R64_NE BOM_R64_SE BOM_R64_SW BOM_R64_NW BOM_ROCI BOM_POCI BOM_EYE BOM_POS_METHOD BOM_PRES_METHOD NADI_LAT NADI_LON NADI_CAT NADI_WIND NADI_PRES WELLINGTON_LAT WELLINGTON_LON WELLINGTON_WIND WELLINGTON_PRES DS824_LAT DS824_LON DS824_STAGE DS824_WIND DS824_PRES TD9636_LAT TD9636_LON TD9636_STAGE TD9636_WIND TD9636_PRES TD9635_LAT TD9635_LON TD9635_WIND TD9635_PRES TD9635_ROCI NEUMANN_LAT NEUMANN_LON NEUMANN_CLASS NEUMANN_WIND NEUMANN_PRES MLC_LAT MLC_LON MLC_CLASS MLC_WIND MLC_PRES USA_GUST BOM_GUST BOM_GUST_PER REUNION_GUST REUNION_GUST_PER USA_SEAHGT USA_SEARAD_NE USA_SEARAD_SE USA_SEARAD_SW USA_SEARAD_NW STORM_SPEED STORM_DIR
1932004N07136 1932 4 WP MM NOT_NAMED 1932-01-03 22:00:00 NR 7.00000 136.000 main 864 864 __________O___ -1 7.00000 136.000 3 3 338
1932004N07136 1932 4 WP MM NOT_NAMED 1932-01-04 00:00:00 NR 7.09677 135.958 main 875 874 __________P___ -1 7.09677 135.958 3 3 338
1932004N07136 1932 4 WP MM NOT_NAMED 1932-01-04 03:00:00 NR 7.24313 135.898 main 885 897 __________P___ -1 7.24313 135.898 3 3 339
1932004N07136 1932 4 WP MM NOT_NAMED 1932-01-04 06:00:00 NR 7.39260 135.847 main 907 907 __________P___ -1 7.39260 135.847 3 3 344
1932004N07136 1932 4 WP MM NOT_NAMED 1932-01-04 09:00:00 NR 7.54707 135.809 main 919 930 __________P___ -1 7.54707 135.809 3 3 352
1932004N07136 1932 4 WP MM NOT_NAMED 1932-01-04 10:00:00 NR 7.60000 135.800 main 930 930 __________O___ -1 7.60000 135.800 4 3 350
1932004N07136 1932 4 WP MM NOT_NAMED 1932-01-04 12:00:00 NR 7.70787 135.789 main 941 941 __________P___ -1 7.70787 135.789 4 3 354
1932004N07136 1932 4 WP MM NOT_NAMED 1932-01-04 15:00:00 NR 7.86984 135.784 main 963 963 __________P___ -1 7.86984 135.784 4 3 4
1932004N07136 1932 4 WP MM NOT_NAMED 1932-01-04 18:00:00 NR 8.02370 135.789 main 975 975 __________P___ -1 8.02370 135.789 4 3 3
1932004N07136 1932 4 WP MM NOT_NAMED 1932-01-04 21:00:00 NR 8.16006 135.798 main 997 997 __________P___ -1 8.16006 135.798 4 3 5
1932004N07136 1932 4 WP MM NOT_NAMED 1932-01-04 22:00:00 NR 8.20000 135.800 main 997 997 __________O___ -1 8.20000 135.800 4 2 0
1932004N07136 1932 4 WP MM NOT_NAMED 1932-01-05 00:00:00 NR 8.27238 135.800 main 1008 1008 __________P___ -1 8.27238 135.800 4 2 6
1932004N07136 1932 4 WP MM NOT_NAMED 1932-01-05 03:00:00 NR 8.36213 135.800 main 1016 1016 __________P___ -1 8.36213 135.800 4 2 0
1932004N07136 1932 4 WP MM NOT_NAMED 1932-01-05 06:00:00 NR 8.43210 135.800 main 1016 1016 __________P___ -1 8.43210 135.800 4 1 10
1932004N07136 1932 4 WP MM NOT_NAMED 1932-01-05 09:00:00 NR 8.48540 135.800 main 1017 1017 __________P___ -1 8.48540 135.800 4 1 8
1932004N07136 1932 4 WP MM NOT_NAMED 1932-01-05 10:00:00 NR 8.50000 135.800 main 1017 1017 __________O___ -1 8.50000 135.800 4 0 0
1932004N07136 1932 4 WP MM NOT_NAMED 1932-01-05 12:00:00 NR 8.50972 135.797 main 1017 1017 __________P___ -1 8.50972 135.797 4 0 0
1932004N07136 1932 4 WP MM NOT_NAMED 1932-01-05 15:00:00 NR 8.51129 135.793 main 1017 1017 __________P___ -1 8.51129 135.793 4 0 0
1932004N07136 1932 4 WP MM NOT_NAMED 1932-01-05 18:00:00 NR 8.52222 135.792 main 1017 1017 __________P___ -1 8.52222 135.792 4 1 0
1932004N07136 1932 4 WP MM NOT_NAMED 1932-01-05 21:00:00 NR 8.57066 135.797 main 1018 1018 __________P___ -1 8.57066 135.797 4 1 11
1932004N07136 1932 4 WP MM NOT_NAMED 1932-01-05 22:00:00 NR 8.60000 135.800 main 1018 1018 __________O___ -1 8.60000 135.800 4 3 0
1932004N07136 1932 4 WP MM NOT_NAMED 1932-01-06 00:00:00 NR 8.70386 135.806 main 1019 1019 __________P___ -1 8.70386 135.806 4 4 0
1932004N07136 1932 4 WP MM NOT_NAMED 1932-01-06 03:00:00 NR 8.90403 135.820 main 1022 1022 __________P___ -1 8.90403 135.820 4 4 4
1932004N07136 1932 4 WP MM NOT_NAMED 1932-01-06 06:00:00 NR 9.12691 135.845 main 1024 1024 __________P___ -1 9.12691 135.845 4 4 7
1932004N07136 1932 4 WP MM NOT_NAMED 1932-01-06 09:00:00 NR 9.33813 135.884 main 1039 1039 __________P___ -1 9.33813 135.884 4 4 13
1932004N07136 1932 4 WP MM NOT_NAMED 1932-01-06 10:00:00 NR 9.40000 135.900 main 1041 1041 __________O___ -1 9.40000 135.900 4 3 13
1932004N07136 1932 4 WP MM NOT_NAMED 1932-01-06 12:00:00 NR 9.46587 135.926 main 1043 1043 __________P___ -1 9.46587 135.926 4 2 29
1932004N07136 1932 4 WP MM NOT_NAMED 1932-01-06 15:00:00 NR 9.53893 135.976 main 1053 1053 __________P___ -1 9.53893 135.976 4 2 40
1932004N07136 1932 4 WP MM NOT_NAMED 1932-01-06 18:00:00 NR 9.61722 136.050 main 1055 1066 __________P___ -1 9.61722 136.050 4 3 41
1932004N07136 1932 4 WP MM NOT_NAMED 1932-01-06 21:00:00 NR 9.74139 136.156 main 1079 1081 __________P___ -1 9.74139 136.156 4 4 39
1932004N07136 1932 4 WP MM NOT_NAMED 1932-01-06 22:00:00 NR 9.80000 136.200 main 1081 1081 __________O___ -1 9.80000 136.200 2 5 30
1932004N07136 1932 4 WP MM NOT_NAMED 1932-01-07 00:00:00 NR 9.97314 136.297 main 1097 1097 __________P___ -1 9.97314 136.297 2 7 29
1932004N07136 1932 4 WP MM NOT_NAMED 1932-01-07 03:00:00 NR 10.2898 136.474 main 1126 1126 __________P___ -1 10.2898 136.474 2 8 30
1932004N07136 1932 4 WP MM NOT_NAMED 1932-01-07 06:00:00 NR 10.6415 136.682 main 1156 1159 __________P___ -1 10.6415 136.682 2 8 32
1932004N07136 1932 4 WP MM NOT_NAMED 1932-01-07 09:00:00 NR 10.9906 136.917 main 1187 1187 __________P___ -1 10.9906 136.917 2 8 34
1932004N07136 1932 4 WP MM NOT_NAMED 1932-01-07 10:00:00 NR 11.1000 137.000 main 1200 1200 __________O___ -1 11.1000 137.000 2 8 40
1932004N07136 1932 4 WP MM NOT_NAMED 1932-01-07 12:00:00 NR 11.2943 137.171 main 1226 1226 __________P___ -1 11.2943 137.171 2 8 43
1932004N07136 1932 4 WP MM NOT_NAMED 1932-01-07 15:00:00 NR 11.5671 137.448 main 1254 1265 __________P___ -1 11.5671 137.448 2 8 47
1932004N07136 1932 4 WP MM NOT_NAMED 1932-01-07 18:00:00 NR 11.8146 137.733 main 1291 1291 __________P___ -1 11.8146 137.733 2 7 50
1932004N07136 1932 4 WP MM NOT_NAMED 1932-01-07 21:00:00 NR 12.0338 138.011 main 1328 1328 __________P___ -1 12.0338 138.011 2 7 51
1932004N07136 1932 4 WP MM NOT_NAMED 1932-01-07 22:00:00 NR 12.1000 138.100 main 1341 1341 __________O___ -1 12.1000 138.100 2 6 52
1932004N07136 1932 4 WP MM NOT_NAMED 1932-01-08 00:00:00 NR 12.2227 138.262 main 1364 1364 __________P___ -1 12.2227 138.262 2 6 54
1932004N07136 1932 4 WP MM NOT_NAMED 1932-01-08 03:00:00 NR 12.3817 138.491 main 1391 1391 __________P___ -1 12.3817 138.491 2 5 56
1932004N07136 1932 4 WP MM NOT_NAMED 1932-01-08 06:00:00 NR 12.5216 138.711 main 1414 1414 __________P___ -1 12.5216 138.711 2 5 57
1932004N07136 1932 4 WP MM NOT_NAMED 1932-01-08 09:00:00 NR 12.6549 138.928 main 1439 1439 __________P___ -1 12.6549 138.928 2 5 58
1932004N07136 1932 4 WP MM NOT_NAMED 1932-01-08 10:00:00 NR 12.7000 139.000 main 1449 1449 __________O___ -1 12.7000 139.000 2 5 57
1932004N07136 1932 4 WP MM NOT_NAMED 1932-01-08 12:00:00 NR 12.7933 139.146 main 1461 1472 __________P___ -1 12.7933 139.146 2 5 56
1932004N07136 1932 4 WP MM NOT_NAMED 1932-01-08 15:00:00 NR 12.9399 139.370 main 1495 1495 __________P___ -1 12.9399 139.370 2 5 56
1932004N07136 1932 4 WP MM NOT_NAMED 1932-01-08 18:00:00 NR 13.0923 139.596 main 1519 1519 __________P___ -1 13.0923 139.596 2 5 55
1932004N07136 1932 4 WP MM NOT_NAMED 1932-01-08 21:00:00 NR 13.2479 139.824 main 1542 1544 __________P___ -1 13.2479 139.824 2 5 55
1932004N07136 1932 4 WP MM NOT_NAMED 1932-01-08 22:00:00 NR 13.3000 139.900 main 1554 __________O___ -1 13.3000 139.900 2 5 57

Digital Typhoon Data and Search

About IBTrACS Database

This database is a web-friendly format of International Best Track Archive for Climate Stewardship (IBTrACS), a global best track data archive curated by NOAA dating back to 1842.

Updated: 2021-10-08